Aeroporto :
LOGIN :

Iscrizione | Disclaimer

   EN    FR    IT 

 










Sommario :    VFR   VFR Marginale   IFR   IFR Intensivo   IFR Molto Intensivo
Visibilità : 
Base nubi : 
>= 8 km
>= 3000ft
5 / 8 km
1000 / 3000 ft
1500m / 5 km
500 / 1000 ft
800 / 1500m
200 / 500 ft
< 800m
< 200 ft
Simboli :   Temporali  Nebbia  Neve Forte  Precipitazioni Forti  Vento > 20 kt
SIGMETs :   Varie  Temporali  Ghiacco  Turbolenza  Onda orograficha  Ceneri Vulcaniche






- Altitudine del aeroporto : 0 ft
- Codice IATA : SOG


ENSG - Sogndal

ULTIMO METAR :
  • 080920Z 24009KT 9999 -RA SCT016 BKN032 04/00 Q1015 RMK WIND 3806FT 24017KT

METARs OBSOLETI :
  • 080820Z 24009KT 9999 -RA BKN032 05/00 Q1015 RMK WIND 3806FT 21019KT
  • 080750Z 24009KT 9999 -RA BKN032 05/00 Q1015 RMK WIND 3806FT 24020KT
  • 080720Z 26014KT 9999 BKN041 06/M00 Q1015 RMK WIND 3806FT 22020KT

TAF N/A



MetMap, La meteo Aeronautica in un colpo d'occhio ! - Copyright ORBIFLY Dicembre 2007 - Disclaimer

ORBIFLY MET'MAP TEAM :

Programmazione e sviluppo : Alexandra Zaïnal
Concezione : Baudouin d'Aumeries
Aiuto per la programmazione : Marc-Olivier Méhu
Supporto tecnico e logistico : Manuel Goepfert
Aiuto per la traduzione : Arnaldo La Scala

Contatto : metmap@orbifly.com




FONTI E CREDITI :

   NOAA